Archival Weather

Chicago O'Hare International

Chicago, Illinois (KORD)

Report from: Wednesday, November 23, 2022 6:51 AM CST
Current time: Monday, July 22, 2024 6:47 AM CDT

Current weather – Weather history – Daily summaries
Weather forecast

Temperature1.7°C (35.1°F)
Wind chill-1.1°C (30.1°F)
Dew point-2.8°C (27.0°F)
Winds 5 kts (2.6 m/s, 5.8 mph) South-Southwest (200°)
Visibility10 mi. (16.1 km)
Clouds Few clouds 20,000 ft. (6,096 m)
Altimeter30.14 in.Hg (1021 mB)
Relative humidity72 %
Density altitude-1,809 ft. (-551 m)
Sea-level pressure102.1 kPa (1021 mB, 30.15 in.Hg)
Remarks Automated weather observing station with precipitation discriminator
Flight conditions Visual Meteorological Conditions
Raw dataKORD 231251Z 20005KT 10SM FEW200 02/M03 A3014 RMK AO2 SLP211 T00171028
An error has occurred. This application may no longer respond until reloaded. Reload 🗙